sensor_id;sensor_type;location;lat;lon;timestamp;P1;durP1;ratioP1;P2;durP2;ratioP2
6832;SDS011;3454;42.654;23.378;2023-12-20T00:00:41;7.70;;;5.20;;
6832;SDS011;3454;42.654;23.378;2023-12-20T00:03:06;9.30;;;5.50;;
6832;SDS011;3454;42.654;23.378;2023-12-20T00:05:32;7.87;;;4.87;;
6832;SDS011;3454;42.654;23.378;2023-12-20T00:07:58;9.40;;;6.07;;
6832;SDS011;3454;42.654;23.378;2023-12-20T00:10:24;8.20;;;5.73;;
6832;SDS011;3454;42.654;23.378;2023-12-20T00:12:49;10.00;;;5.63;;
6832;SDS011;3454;42.654;23.378;2023-12-20T00:15:14;9.10;;;5.77;;
6832;SDS011;3454;42.654;23.378;2023-12-20T00:17:40;7.77;;;5.43;;
6832;SDS011;3454;42.654;23.378;2023-12-20T00:20:06;13.90;;;5.50;;
6832;SDS011;3454;42.654;23.378;2023-12-20T00:22:32;11.13;;;6.10;;
6832;SDS011;3454;42.654;23.378;2023-12-20T00:24:58;10.43;;;6.40;;
6832;SDS011;3454;42.654;23.378;2023-12-20T00:27:23;9.20;;;6.00;;
6832;SDS011;3454;42.654;23.378;2023-12-20T00:29:49;10.60;;;6.53;;
6832;SDS011;3454;42.654;23.378;2023-12-20T00:32:15;11.63;;;6.80;;
6832;SDS011;3454;42.654;23.378;2023-12-20T00:34:42;9.40;;;5.87;;
6832;SDS011;3454;42.654;23.378;2023-12-20T00:37:08;12.50;;;7.37;;
6832;SDS011;3454;42.654;23.378;2023-12-20T00:39:33;11.77;;;7.77;;
6832;SDS011;3454;42.654;23.378;2023-12-20T00:41:59;14.30;;;8.30;;
6832;SDS011;3454;42.654;23.378;2023-12-20T00:44:24;12.50;;;8.03;;
6832;SDS011;3454;42.654;23.378;2023-12-20T00:46:49;10.97;;;6.50;;
6832;SDS011;3454;42.654;23.378;2023-12-20T00:49:15;10.13;;;6.20;;
6832;SDS011;3454;42.654;23.378;2023-12-20T00:51:40;10.77;;;6.07;;
6832;SDS011;3454;42.654;23.378;2023-12-20T00:54:06;9.13;;;5.03;;
6832;SDS011;3454;42.654;23.378;2023-12-20T00:56:32;7.80;;;4.70;;
6832;SDS011;3454;42.654;23.378;2023-12-20T00:58:57;7.10;;;4.53;;
6832;SDS011;3454;42.654;23.378;2023-12-20T01:01:23;7.90;;;4.93;;
6832;SDS011;3454;42.654;23.378;2023-12-20T01:03:49;7.07;;;4.30;;
6832;SDS011;3454;42.654;23.378;2023-12-20T01:06:16;5.60;;;3.87;;
6832;SDS011;3454;42.654;23.378;2023-12-20T01:08:42;7.80;;;4.73;;
6832;SDS011;3454;42.654;23.378;2023-12-20T01:11:07;6.80;;;4.30;;
6832;SDS011;3454;42.654;23.378;2023-12-20T01:13:33;6.07;;;4.23;;
6832;SDS011;3454;42.654;23.378;2023-12-20T01:15:58;7.50;;;4.40;;
6832;SDS011;3454;42.654;23.378;2023-12-20T01:18:24;7.47;;;4.87;;
6832;SDS011;3454;42.654;23.378;2023-12-20T01:20:50;6.23;;;4.10;;
6832;SDS011;3454;42.654;23.378;2023-12-20T01:23:15;6.23;;;4.50;;
6832;SDS011;3454;42.654;23.378;2023-12-20T01:25:41;7.70;;;4.53;;
6832;SDS011;3454;42.654;23.378;2023-12-20T01:28:06;8.37;;;5.03;;
6832;SDS011;3454;42.654;23.378;2023-12-20T01:30:32;6.03;;;4.20;;
6832;SDS011;3454;42.654;23.378;2023-12-20T01:32:59;7.53;;;4.33;;
6832;SDS011;3454;42.654;23.378;2023-12-20T01:35:25;7.47;;;4.30;;
6832;SDS011;3454;42.654;23.378;2023-12-20T01:37:51;7.27;;;4.00;;
6832;SDS011;3454;42.654;23.378;2023-12-20T01:40:16;7.20;;;4.60;;
6832;SDS011;3454;42.654;23.378;2023-12-20T01:42:42;6.97;;;4.53;;
6832;SDS011;3454;42.654;23.378;2023-12-20T01:45:08;10.07;;;5.87;;
6832;SDS011;3454;42.654;23.378;2023-12-20T01:47:34;10.83;;;6.57;;
6832;SDS011;3454;42.654;23.378;2023-12-20T01:50:00;8.63;;;5.53;;
6832;SDS011;3454;42.654;23.378;2023-12-20T01:52:28;10.20;;;5.63;;
6832;SDS011;3454;42.654;23.378;2023-12-20T01:54:54;8.50;;;5.80;;
6832;SDS011;3454;42.654;23.378;2023-12-20T01:57:26;8.40;;;5.57;;
6832;SDS011;3454;42.654;23.378;2023-12-20T01:59:52;9.33;;;5.67;;
6832;SDS011;3454;42.654;23.378;2023-12-20T02:02:18;9.97;;;5.63;;
6832;SDS011;3454;42.654;23.378;2023-12-20T02:04:44;7.40;;;5.07;;
6832;SDS011;3454;42.654;23.378;2023-12-20T02:07:10;7.40;;;4.97;;
6832;SDS011;3454;42.654;23.378;2023-12-20T02:09:38;7.77;;;5.30;;
6832;SDS011;3454;42.654;23.378;2023-12-20T02:12:03;7.97;;;5.60;;
6832;SDS011;3454;42.654;23.378;2023-12-20T02:14:29;7.77;;;5.50;;
6832;SDS011;3454;42.654;23.378;2023-12-20T02:16:55;8.17;;;5.37;;
6832;SDS011;3454;42.654;23.378;2023-12-20T02:19:21;15.37;;;9.83;;
6832;SDS011;3454;42.654;23.378;2023-12-20T02:21:47;25.63;;;14.20;;
6832;SDS011;3454;42.654;23.378;2023-12-20T02:24:12;31.07;;;19.43;;
6832;SDS011;3454;42.654;23.378;2023-12-20T02:26:38;36.73;;;20.47;;
6832;SDS011;3454;42.654;23.378;2023-12-20T02:29:03;40.40;;;21.27;;
6832;SDS011;3454;42.654;23.378;2023-12-20T02:31:29;35.57;;;20.43;;
6832;SDS011;3454;42.654;23.378;2023-12-20T02:33:55;28.93;;;16.67;;
6832;SDS011;3454;42.654;23.378;2023-12-20T02:36:20;29.57;;;16.30;;
6832;SDS011;3454;42.654;23.378;2023-12-20T02:38:46;19.73;;;11.60;;
6832;SDS011;3454;42.654;23.378;2023-12-20T02:41:11;23.60;;;14.53;;
6832;SDS011;3454;42.654;23.378;2023-12-20T02:43:37;26.13;;;14.70;;
6832;SDS011;3454;42.654;23.378;2023-12-20T02:46:03;31.07;;;18.00;;
6832;SDS011;3454;42.654;23.378;2023-12-20T02:48:28;30.97;;;19.03;;
6832;SDS011;3454;42.654;23.378;2023-12-20T02:50:54;32.60;;;19.67;;
6832;SDS011;3454;42.654;23.378;2023-12-20T02:53:20;41.33;;;22.37;;
6832;SDS011;3454;42.654;23.378;2023-12-20T02:55:46;35.13;;;21.30;;
6832;SDS011;3454;42.654;23.378;2023-12-20T02:58:11;38.50;;;22.73;;
6832;SDS011;3454;42.654;23.378;2023-12-20T03:00:37;35.23;;;22.27;;
6832;SDS011;3454;42.654;23.378;2023-12-20T03:03:02;37.30;;;22.60;;
6832;SDS011;3454;42.654;23.378;2023-12-20T03:05:28;40.80;;;24.63;;
6832;SDS011;3454;42.654;23.378;2023-12-20T03:07:53;41.00;;;23.93;;
6832;SDS011;3454;42.654;23.378;2023-12-20T03:10:26;42.93;;;24.87;;
6832;SDS011;3454;42.654;23.378;2023-12-20T03:12:52;43.13;;;24.57;;
6832;SDS011;3454;42.654;23.378;2023-12-20T03:15:17;44.30;;;24.07;;
6832;SDS011;3454;42.654;23.378;2023-12-20T03:17:42;36.67;;;23.30;;
6832;SDS011;3454;42.654;23.378;2023-12-20T03:20:08;52.53;;;30.47;;
6832;SDS011;3454;42.654;23.378;2023-12-20T03:22:34;45.57;;;25.07;;
6832;SDS011;3454;42.654;23.378;2023-12-20T03:25:00;44.00;;;24.47;;
6832;SDS011;3454;42.654;23.378;2023-12-20T03:27:26;49.63;;;26.60;;
6832;SDS011;3454;42.654;23.378;2023-12-20T03:29:51;42.40;;;25.30;;
6832;SDS011;3454;42.654;23.378;2023-12-20T03:32:17;43.07;;;25.10;;
6832;SDS011;3454;42.654;23.378;2023-12-20T03:34:43;42.10;;;24.27;;
6832;SDS011;3454;42.654;23.378;2023-12-20T03:37:08;42.87;;;24.20;;
6832;SDS011;3454;42.654;23.378;2023-12-20T03:39:34;45.37;;;22.87;;
6832;SDS011;3454;42.654;23.378;2023-12-20T03:42:00;42.03;;;23.83;;
6832;SDS011;3454;42.654;23.378;2023-12-20T03:44:25;40.80;;;24.93;;
6832;SDS011;3454;42.654;23.378;2023-12-20T03:46:51;36.47;;;21.87;;
6832;SDS011;3454;42.654;23.378;2023-12-20T03:49:16;37.60;;;22.77;;
6832;SDS011;3454;42.654;23.378;2023-12-20T03:51:42;33.80;;;20.50;;
6832;SDS011;3454;42.654;23.378;2023-12-20T03:54:08;38.97;;;23.10;;
6832;SDS011;3454;42.654;23.378;2023-12-20T03:56:33;32.97;;;18.90;;
6832;SDS011;3454;42.654;23.378;2023-12-20T03:58:59;27.20;;;17.73;;
6832;SDS011;3454;42.654;23.378;2023-12-20T04:01:24;25.50;;;15.60;;
6832;SDS011;3454;42.654;23.378;2023-12-20T04:03:50;18.40;;;12.03;;
6832;SDS011;3454;42.654;23.378;2023-12-20T04:06:17;17.50;;;10.80;;
6832;SDS011;3454;42.654;23.378;2023-12-20T04:08:43;21.67;;;12.70;;
6832;SDS011;3454;42.654;23.378;2023-12-20T04:11:08;16.83;;;10.63;;
6832;SDS011;3454;42.654;23.378;2023-12-20T04:13:34;18.37;;;11.17;;
6832;SDS011;3454;42.654;23.378;2023-12-20T04:15:59;12.70;;;7.60;;
6832;SDS011;3454;42.654;23.378;2023-12-20T04:18:25;10.00;;;6.53;;
6832;SDS011;3454;42.654;23.378;2023-12-20T04:20:51;11.23;;;7.07;;
6832;SDS011;3454;42.654;23.378;2023-12-20T04:23:16;14.90;;;7.87;;
6832;SDS011;3454;42.654;23.378;2023-12-20T04:25:42;8.43;;;5.97;;
6832;SDS011;3454;42.654;23.378;2023-12-20T04:28:07;11.87;;;7.33;;
6832;SDS011;3454;42.654;23.378;2023-12-20T04:30:33;10.63;;;6.53;;
6832;SDS011;3454;42.654;23.378;2023-12-20T04:32:58;15.47;;;9.80;;
6832;SDS011;3454;42.654;23.378;2023-12-20T04:35:24;18.23;;;9.07;;
6832;SDS011;3454;42.654;23.378;2023-12-20T04:37:49;15.43;;;8.90;;
6832;SDS011;3454;42.654;23.378;2023-12-20T04:40:15;18.93;;;10.17;;
6832;SDS011;3454;42.654;23.378;2023-12-20T04:42:41;18.73;;;10.20;;
6832;SDS011;3454;42.654;23.378;2023-12-20T04:45:07;14.47;;;8.93;;
6832;SDS011;3454;42.654;23.378;2023-12-20T04:47:33;20.03;;;10.53;;
6832;SDS011;3454;42.654;23.378;2023-12-20T04:49:58;28.07;;;13.77;;
6832;SDS011;3454;42.654;23.378;2023-12-20T04:52:25;31.50;;;16.70;;
6832;SDS011;3454;42.654;23.378;2023-12-20T04:54:50;28.77;;;17.57;;
6832;SDS011;3454;42.654;23.378;2023-12-20T04:57:16;37.37;;;18.57;;
6832;SDS011;3454;42.654;23.378;2023-12-20T04:59:41;41.73;;;20.27;;
6832;SDS011;3454;42.654;23.378;2023-12-20T05:02:07;43.20;;;22.23;;
6832;SDS011;3454;42.654;23.378;2023-12-20T05:04:32;47.27;;;24.43;;
6832;SDS011;3454;42.654;23.378;2023-12-20T05:06:58;53.40;;;25.90;;
6832;SDS011;3454;42.654;23.378;2023-12-20T05:09:24;60.10;;;27.30;;
6832;SDS011;3454;42.654;23.378;2023-12-20T05:11:50;58.00;;;28.83;;
6832;SDS011;3454;42.654;23.378;2023-12-20T05:14:15;56.67;;;28.03;;
6832;SDS011;3454;42.654;23.378;2023-12-20T05:16:41;54.10;;;28.40;;
6832;SDS011;3454;42.654;23.378;2023-12-20T05:19:14;52.93;;;25.67;;
6832;SDS011;3454;42.654;23.378;2023-12-20T05:21:39;55.17;;;26.17;;
6832;SDS011;3454;42.654;23.378;2023-12-20T05:24:05;62.97;;;26.00;;
6832;SDS011;3454;42.654;23.378;2023-12-20T05:26:30;52.80;;;23.30;;
6832;SDS011;3454;42.654;23.378;2023-12-20T05:28:56;55.10;;;21.13;;
6832;SDS011;3454;42.654;23.378;2023-12-20T05:31:22;48.00;;;20.83;;
6832;SDS011;3454;42.654;23.378;2023-12-20T05:33:47;78.87;;;20.70;;
6832;SDS011;3454;42.654;23.378;2023-12-20T05:36:13;44.00;;;19.37;;
6832;SDS011;3454;42.654;23.378;2023-12-20T05:38:40;38.70;;;17.73;;
6832;SDS011;3454;42.654;23.378;2023-12-20T05:41:05;35.77;;;17.23;;
6832;SDS011;3454;42.654;23.378;2023-12-20T05:43:31;43.80;;;17.50;;
6832;SDS011;3454;42.654;23.378;2023-12-20T05:45:58;40.90;;;16.93;;
6832;SDS011;3454;42.654;23.378;2023-12-20T05:48:23;35.17;;;16.93;;
6832;SDS011;3454;42.654;23.378;2023-12-20T05:50:49;37.53;;;17.63;;
6832;SDS011;3454;42.654;23.378;2023-12-20T05:53:14;40.47;;;17.50;;
6832;SDS011;3454;42.654;23.378;2023-12-20T05:55:40;46.27;;;19.30;;
6832;SDS011;3454;42.654;23.378;2023-12-20T05:58:05;39.53;;;18.07;;
6832;SDS011;3454;42.654;23.378;2023-12-20T06:00:31;41.73;;;19.13;;
6832;SDS011;3454;42.654;23.378;2023-12-20T06:02:56;42.23;;;19.20;;
6832;SDS011;3454;42.654;23.378;2023-12-20T06:05:22;37.13;;;18.63;;
6832;SDS011;3454;42.654;23.378;2023-12-20T06:07:47;40.73;;;17.23;;
6832;SDS011;3454;42.654;23.378;2023-12-20T06:10:14;39.50;;;18.87;;
6832;SDS011;3454;42.654;23.378;2023-12-20T06:12:40;38.30;;;17.63;;
6832;SDS011;3454;42.654;23.378;2023-12-20T06:15:06;37.07;;;18.17;;
6832;SDS011;3454;42.654;23.378;2023-12-20T06:17:32;32.40;;;15.83;;
6832;SDS011;3454;42.654;23.378;2023-12-20T06:19:57;38.90;;;17.20;;
6832;SDS011;3454;42.654;23.378;2023-12-20T06:22:23;35.53;;;17.47;;
6832;SDS011;3454;42.654;23.378;2023-12-20T06:24:48;41.80;;;16.90;;
6832;SDS011;3454;42.654;23.378;2023-12-20T06:27:14;33.83;;;16.40;;
6832;SDS011;3454;42.654;23.378;2023-12-20T06:29:40;42.30;;;18.13;;
6832;SDS011;3454;42.654;23.378;2023-12-20T06:32:06;41.97;;;17.23;;
6832;SDS011;3454;42.654;23.378;2023-12-20T06:34:31;38.90;;;17.20;;
6832;SDS011;3454;42.654;23.378;2023-12-20T06:36:57;41.20;;;16.73;;
6832;SDS011;3454;42.654;23.378;2023-12-20T06:39:22;47.80;;;23.67;;
6832;SDS011;3454;42.654;23.378;2023-12-20T06:41:48;36.03;;;16.87;;
6832;SDS011;3454;42.654;23.378;2023-12-20T06:44:13;39.20;;;15.97;;
6832;SDS011;3454;42.654;23.378;2023-12-20T06:46:39;33.57;;;15.93;;
6832;SDS011;3454;42.654;23.378;2023-12-20T06:49:05;30.53;;;14.50;;
6832;SDS011;3454;42.654;23.378;2023-12-20T06:51:30;28.40;;;14.80;;
6832;SDS011;3454;42.654;23.378;2023-12-20T06:53:56;26.23;;;14.03;;
6832;SDS011;3454;42.654;23.378;2023-12-20T06:56:22;43.33;;;21.03;;
6832;SDS011;3454;42.654;23.378;2023-12-20T06:58:47;28.47;;;15.50;;
6832;SDS011;3454;42.654;23.378;2023-12-20T07:01:13;47.27;;;24.10;;
6832;SDS011;3454;42.654;23.378;2023-12-20T07:03:40;51.50;;;24.00;;
6832;SDS011;3454;42.654;23.378;2023-12-20T07:06:06;50.63;;;23.67;;
6832;SDS011;3454;42.654;23.378;2023-12-20T07:08:31;48.20;;;24.73;;
6832;SDS011;3454;42.654;23.378;2023-12-20T07:10:57;39.07;;;21.33;;
6832;SDS011;3454;42.654;23.378;2023-12-20T07:13:22;38.83;;;20.90;;
6832;SDS011;3454;42.654;23.378;2023-12-20T07:15:48;59.80;;;28.63;;
6832;SDS011;3454;42.654;23.378;2023-12-20T07:18:14;48.57;;;24.67;;
6832;SDS011;3454;42.654;23.378;2023-12-20T07:20:41;31.53;;;15.50;;
6832;SDS011;3454;42.654;23.378;2023-12-20T07:23:08;29.13;;;14.67;;
6832;SDS011;3454;42.654;23.378;2023-12-20T07:25:34;26.77;;;15.43;;
6832;SDS011;3454;42.654;23.378;2023-12-20T07:28:00;32.40;;;16.93;;
6832;SDS011;3454;42.654;23.378;2023-12-20T07:30:25;47.67;;;24.50;;
6832;SDS011;3454;42.654;23.378;2023-12-20T07:32:51;53.97;;;26.27;;
6832;SDS011;3454;42.654;23.378;2023-12-20T07:35:18;41.67;;;23.93;;
6832;SDS011;3454;42.654;23.378;2023-12-20T07:37:43;44.07;;;22.63;;
6832;SDS011;3454;42.654;23.378;2023-12-20T07:40:09;35.13;;;17.63;;
6832;SDS011;3454;42.654;23.378;2023-12-20T07:42:35;33.10;;;15.73;;
6832;SDS011;3454;42.654;23.378;2023-12-20T07:45:01;26.77;;;15.50;;
6832;SDS011;3454;42.654;23.378;2023-12-20T07:47:27;31.50;;;16.43;;
6832;SDS011;3454;42.654;23.378;2023-12-20T07:49:52;34.50;;;17.93;;
6832;SDS011;3454;42.654;23.378;2023-12-20T07:52:18;33.93;;;19.30;;
6832;SDS011;3454;42.654;23.378;2023-12-20T07:54:44;44.10;;;20.30;;
6832;SDS011;3454;42.654;23.378;2023-12-20T07:57:10;39.13;;;20.03;;
6832;SDS011;3454;42.654;23.378;2023-12-20T07:59:37;47.70;;;23.20;;
6832;SDS011;3454;42.654;23.378;2023-12-20T08:02:03;54.53;;;24.33;;
6832;SDS011;3454;42.654;23.378;2023-12-20T08:04:31;55.07;;;25.17;;
6832;SDS011;3454;42.654;23.378;2023-12-20T08:06:58;57.30;;;26.20;;
6832;SDS011;3454;42.654;23.378;2023-12-20T08:09:23;58.67;;;26.50;;
6832;SDS011;3454;42.654;23.378;2023-12-20T08:11:49;45.67;;;24.23;;
6832;SDS011;3454;42.654;23.378;2023-12-20T08:14:15;55.17;;;25.17;;
6832;SDS011;3454;42.654;23.378;2023-12-20T08:16:41;57.73;;;25.50;;
6832;SDS011;3454;42.654;23.378;2023-12-20T08:19:06;50.73;;;24.30;;
6832;SDS011;3454;42.654;23.378;2023-12-20T08:21:32;42.90;;;22.50;;
6832;SDS011;3454;42.654;23.378;2023-12-20T08:23:58;44.53;;;22.40;;
6832;SDS011;3454;42.654;23.378;2023-12-20T08:26:25;51.17;;;23.60;;
6832;SDS011;3454;42.654;23.378;2023-12-20T08:28:51;52.30;;;23.80;;
6832;SDS011;3454;42.654;23.378;2023-12-20T08:31:17;46.23;;;23.63;;
6832;SDS011;3454;42.654;23.378;2023-12-20T08:33:44;55.27;;;26.40;;
6832;SDS011;3454;42.654;23.378;2023-12-20T08:36:11;51.17;;;24.77;;
6832;SDS011;3454;42.654;23.378;2023-12-20T08:38:37;56.40;;;24.97;;
6832;SDS011;3454;42.654;23.378;2023-12-20T08:41:03;50.57;;;24.50;;
6832;SDS011;3454;42.654;23.378;2023-12-20T08:43:35;53.50;;;25.00;;
6832;SDS011;3454;42.654;23.378;2023-12-20T08:46:01;49.20;;;25.83;;
6832;SDS011;3454;42.654;23.378;2023-12-20T08:48:27;54.90;;;24.27;;
6832;SDS011;3454;42.654;23.378;2023-12-20T08:50:54;50.70;;;23.63;;
6832;SDS011;3454;42.654;23.378;2023-12-20T08:53:19;56.30;;;24.53;;
6832;SDS011;3454;42.654;23.378;2023-12-20T08:55:45;58.07;;;25.13;;
6832;SDS011;3454;42.654;23.378;2023-12-20T08:58:11;50.53;;;24.43;;
6832;SDS011;3454;42.654;23.378;2023-12-20T09:00:37;56.87;;;24.97;;
6832;SDS011;3454;42.654;23.378;2023-12-20T09:03:03;49.67;;;24.00;;
6832;SDS011;3454;42.654;23.378;2023-12-20T09:05:29;51.97;;;24.03;;
6832;SDS011;3454;42.654;23.378;2023-12-20T09:07:55;53.27;;;24.93;;
6832;SDS011;3454;42.654;23.378;2023-12-20T09:10:21;56.57;;;25.27;;
6832;SDS011;3454;42.654;23.378;2023-12-20T09:12:49;52.87;;;25.03;;
6832;SDS011;3454;42.654;23.378;2023-12-20T09:15:16;56.57;;;23.50;;
6832;SDS011;3454;42.654;23.378;2023-12-20T09:17:41;54.00;;;23.63;;
6832;SDS011;3454;42.654;23.378;2023-12-20T09:20:09;50.03;;;23.97;;
6832;SDS011;3454;42.654;23.378;2023-12-20T09:22:34;50.10;;;24.33;;
6832;SDS011;3454;42.654;23.378;2023-12-20T09:25:00;56.87;;;25.40;;
6832;SDS011;3454;42.654;23.378;2023-12-20T09:27:27;50.50;;;26.43;;
6832;SDS011;3454;42.654;23.378;2023-12-20T09:29:52;49.23;;;23.20;;
6832;SDS011;3454;42.654;23.378;2023-12-20T09:32:18;55.23;;;25.60;;
6832;SDS011;3454;42.654;23.378;2023-12-20T09:34:45;52.17;;;26.30;;
6832;SDS011;3454;42.654;23.378;2023-12-20T09:37:12;55.67;;;25.90;;
6832;SDS011;3454;42.654;23.378;2023-12-20T09:39:38;56.17;;;27.60;;
6832;SDS011;3454;42.654;23.378;2023-12-20T09:42:04;53.23;;;26.30;;
6832;SDS011;3454;42.654;23.378;2023-12-20T09:44:33;54.73;;;25.17;;
6832;SDS011;3454;42.654;23.378;2023-12-20T09:47:05;60.83;;;28.37;;
6832;SDS011;3454;42.654;23.378;2023-12-20T09:49:31;64.83;;;28.43;;
6832;SDS011;3454;42.654;23.378;2023-12-20T09:51:58;68.40;;;29.87;;
6832;SDS011;3454;42.654;23.378;2023-12-20T09:54:25;62.60;;;29.93;;
6832;SDS011;3454;42.654;23.378;2023-12-20T09:56:53;60.67;;;28.53;;
6832;SDS011;3454;42.654;23.378;2023-12-20T09:59:19;79.43;;;31.13;;
6832;SDS011;3454;42.654;23.378;2023-12-20T10:01:45;62.53;;;28.17;;
6832;SDS011;3454;42.654;23.378;2023-12-20T10:04:11;59.90;;;29.00;;
6832;SDS011;3454;42.654;23.378;2023-12-20T10:06:40;65.13;;;28.40;;
6832;SDS011;3454;42.654;23.378;2023-12-20T10:09:07;66.00;;;30.33;;
6832;SDS011;3454;42.654;23.378;2023-12-20T10:11:37;56.03;;;27.20;;
6832;SDS011;3454;42.654;23.378;2023-12-20T10:14:04;66.33;;;26.83;;
6832;SDS011;3454;42.654;23.378;2023-12-20T10:16:30;55.57;;;27.07;;
6832;SDS011;3454;42.654;23.378;2023-12-20T10:18:57;61.40;;;26.93;;
6832;SDS011;3454;42.654;23.378;2023-12-20T10:21:24;60.60;;;28.27;;
6832;SDS011;3454;42.654;23.378;2023-12-20T10:23:51;53.43;;;26.83;;
6832;SDS011;3454;42.654;23.378;2023-12-20T10:26:21;55.67;;;27.80;;
6832;SDS011;3454;42.654;23.378;2023-12-20T10:28:54;51.27;;;26.47;;
6832;SDS011;3454;42.654;23.378;2023-12-20T10:31:29;55.50;;;27.40;;
6832;SDS011;3454;42.654;23.378;2023-12-20T10:33:57;54.37;;;25.43;;
6832;SDS011;3454;42.654;23.378;2023-12-20T10:36:27;55.83;;;26.53;;
6832;SDS011;3454;42.654;23.378;2023-12-20T10:38:55;51.07;;;27.70;;
6832;SDS011;3454;42.654;23.378;2023-12-20T10:41:29;55.30;;;27.93;;
6832;SDS011;3454;42.654;23.378;2023-12-20T10:43:59;52.73;;;27.93;;
6832;SDS011;3454;42.654;23.378;2023-12-20T10:46:27;52.90;;;27.57;;
6832;SDS011;3454;42.654;23.378;2023-12-20T10:48:57;56.37;;;29.80;;
6832;SDS011;3454;42.654;23.378;2023-12-20T10:51:23;52.57;;;29.27;;
6832;SDS011;3454;42.654;23.378;2023-12-20T10:53:51;53.90;;;27.70;;
6832;SDS011;3454;42.654;23.378;2023-12-20T10:56:21;48.03;;;26.57;;
6832;SDS011;3454;42.654;23.378;2023-12-20T10:58:50;51.20;;;26.60;;
6832;SDS011;3454;42.654;23.378;2023-12-20T11:01:17;55.90;;;28.10;;
6832;SDS011;3454;42.654;23.378;2023-12-20T11:03:53;49.17;;;27.27;;
6832;SDS011;3454;42.654;23.378;2023-12-20T11:06:23;56.80;;;26.63;;
6832;SDS011;3454;42.654;23.378;2023-12-20T11:14:56;39.80;;;22.50;;
6832;SDS011;3454;42.654;23.378;2023-12-20T11:17:22;41.53;;;23.03;;
6832;SDS011;3454;42.654;23.378;2023-12-20T11:22:21;54.03;;;28.57;;
6832;SDS011;3454;42.654;23.378;2023-12-20T11:24:48;55.77;;;28.90;;
6832;SDS011;3454;42.654;23.378;2023-12-20T11:27:14;57.13;;;28.53;;
6832;SDS011;3454;42.654;23.378;2023-12-20T11:29:39;48.90;;;27.20;;
6832;SDS011;3454;42.654;23.378;2023-12-20T11:32:48;53.33;;;27.73;;
6832;SDS011;3454;42.654;23.378;2023-12-20T11:37:22;48.60;;;28.07;;
6832;SDS011;3454;42.654;23.378;2023-12-20T11:40:05;52.90;;;27.17;;
6832;SDS011;3454;42.654;23.378;2023-12-20T11:42:40;52.10;;;27.17;;
6832;SDS011;3454;42.654;23.378;2023-12-20T11:45:10;49.70;;;26.60;;
6832;SDS011;3454;42.654;23.378;2023-12-20T11:47:38;44.20;;;26.57;;
6832;SDS011;3454;42.654;23.378;2023-12-20T11:50:04;52.57;;;27.30;;
6832;SDS011;3454;42.654;23.378;2023-12-20T11:52:30;46.13;;;25.10;;
6832;SDS011;3454;42.654;23.378;2023-12-20T11:54:56;48.87;;;24.80;;
6832;SDS011;3454;42.654;23.378;2023-12-20T11:57:22;46.60;;;23.37;;
6832;SDS011;3454;42.654;23.378;2023-12-20T11:59:48;47.63;;;23.73;;
6832;SDS011;3454;42.654;23.378;2023-12-20T12:02:14;45.27;;;24.13;;
6832;SDS011;3454;42.654;23.378;2023-12-20T12:04:43;49.80;;;25.67;;
6832;SDS011;3454;42.654;23.378;2023-12-20T12:07:08;45.70;;;24.23;;
6832;SDS011;3454;42.654;23.378;2023-12-20T12:09:34;45.30;;;25.37;;
6832;SDS011;3454;42.654;23.378;2023-12-20T12:12:00;48.83;;;24.83;;
6832;SDS011;3454;42.654;23.378;2023-12-20T12:14:26;47.80;;;26.57;;
6832;SDS011;3454;42.654;23.378;2023-12-20T12:16:52;50.33;;;26.23;;
6832;SDS011;3454;42.654;23.378;2023-12-20T12:19:25;52.97;;;26.47;;
6832;SDS011;3454;42.654;23.378;2023-12-20T12:22:03;53.47;;;25.23;;
6832;SDS011;3454;42.654;23.378;2023-12-20T12:24:36;55.73;;;26.27;;
6832;SDS011;3454;42.654;23.378;2023-12-20T12:27:02;49.20;;;25.20;;
6832;SDS011;3454;42.654;23.378;2023-12-20T12:29:28;47.13;;;25.97;;
6832;SDS011;3454;42.654;23.378;2023-12-20T12:31:54;48.73;;;24.63;;
6832;SDS011;3454;42.654;23.378;2023-12-20T12:34:20;46.10;;;25.80;;
6832;SDS011;3454;42.654;23.378;2023-12-20T12:36:45;40.00;;;23.50;;
6832;SDS011;3454;42.654;23.378;2023-12-20T12:39:14;43.03;;;22.37;;
6832;SDS011;3454;42.654;23.378;2023-12-20T12:41:42;43.40;;;23.93;;
6832;SDS011;3454;42.654;23.378;2023-12-20T12:44:08;43.83;;;25.10;;
6832;SDS011;3454;42.654;23.378;2023-12-20T12:46:34;43.43;;;24.70;;
6832;SDS011;3454;42.654;23.378;2023-12-20T12:48:59;44.60;;;25.87;;
6832;SDS011;3454;42.654;23.378;2023-12-20T12:51:25;39.47;;;23.50;;
6832;SDS011;3454;42.654;23.378;2023-12-20T12:53:50;49.33;;;23.40;;
6832;SDS011;3454;42.654;23.378;2023-12-20T12:56:16;48.70;;;25.23;;
6832;SDS011;3454;42.654;23.378;2023-12-20T12:58:42;45.57;;;24.97;;
6832;SDS011;3454;42.654;23.378;2023-12-20T13:01:08;51.70;;;26.90;;
6832;SDS011;3454;42.654;23.378;2023-12-20T13:03:34;54.03;;;27.13;;
6832;SDS011;3454;42.654;23.378;2023-12-20T13:06:00;58.80;;;26.80;;
6832;SDS011;3454;42.654;23.378;2023-12-20T13:08:26;54.40;;;26.40;;
6832;SDS011;3454;42.654;23.378;2023-12-20T13:10:53;63.87;;;28.83;;
6832;SDS011;3454;42.654;23.378;2023-12-20T13:13:20;69.67;;;29.93;;
6832;SDS011;3454;42.654;23.378;2023-12-20T13:15:46;57.10;;;28.33;;
6832;SDS011;3454;42.654;23.378;2023-12-20T13:18:16;56.40;;;29.83;;
6832;SDS011;3454;42.654;23.378;2023-12-20T13:20:43;57.70;;;27.57;;
6832;SDS011;3454;42.654;23.378;2023-12-20T13:23:09;58.97;;;28.33;;
6832;SDS011;3454;42.654;23.378;2023-12-20T13:25:34;58.13;;;30.53;;
6832;SDS011;3454;42.654;23.378;2023-12-20T13:28:00;63.77;;;28.33;;
6832;SDS011;3454;42.654;23.378;2023-12-20T13:30:27;56.70;;;28.60;;
6832;SDS011;3454;42.654;23.378;2023-12-20T13:32:53;63.13;;;29.93;;
6832;SDS011;3454;42.654;23.378;2023-12-20T13:35:18;61.37;;;29.87;;
6832;SDS011;3454;42.654;23.378;2023-12-20T13:37:45;60.50;;;27.73;;
6832;SDS011;3454;42.654;23.378;2023-12-20T13:40:11;59.23;;;28.03;;
6832;SDS011;3454;42.654;23.378;2023-12-20T13:42:37;59.47;;;29.13;;
6832;SDS011;3454;42.654;23.378;2023-12-20T13:45:03;62.13;;;29.33;;
6832;SDS011;3454;42.654;23.378;2023-12-20T13:47:31;56.77;;;27.03;;
6832;SDS011;3454;42.654;23.378;2023-12-20T13:49:56;54.07;;;28.67;;
6832;SDS011;3454;42.654;23.378;2023-12-20T13:52:29;61.23;;;28.63;;
6832;SDS011;3454;42.654;23.378;2023-12-20T13:54:54;58.63;;;29.63;;
6832;SDS011;3454;42.654;23.378;2023-12-20T13:57:20;48.93;;;25.73;;
6832;SDS011;3454;42.654;23.378;2023-12-20T13:59:45;56.53;;;26.77;;
6832;SDS011;3454;42.654;23.378;2023-12-20T14:02:11;58.40;;;28.00;;
6832;SDS011;3454;42.654;23.378;2023-12-20T14:04:37;50.17;;;25.17;;
6832;SDS011;3454;42.654;23.378;2023-12-20T14:07:04;58.17;;;28.03;;
6832;SDS011;3454;42.654;23.378;2023-12-20T14:09:32;57.20;;;26.13;;
6832;SDS011;3454;42.654;23.378;2023-12-20T14:11:58;55.87;;;27.23;;
6832;SDS011;3454;42.654;23.378;2023-12-20T14:14:23;54.07;;;28.00;;
6832;SDS011;3454;42.654;23.378;2023-12-20T14:16:49;50.17;;;25.73;;
6832;SDS011;3454;42.654;23.378;2023-12-20T14:19:15;53.50;;;26.83;;
6832;SDS011;3454;42.654;23.378;2023-12-20T14:21:41;57.60;;;29.23;;
6832;SDS011;3454;42.654;23.378;2023-12-20T14:24:06;71.70;;;34.07;;
6832;SDS011;3454;42.654;23.378;2023-12-20T14:26:32;76.37;;;33.37;;
6832;SDS011;3454;42.654;23.378;2023-12-20T14:28:57;69.90;;;31.87;;
6832;SDS011;3454;42.654;23.378;2023-12-20T14:31:23;69.20;;;33.03;;
6832;SDS011;3454;42.654;23.378;2023-12-20T14:33:50;72.33;;;32.40;;
6832;SDS011;3454;42.654;23.378;2023-12-20T14:36:18;72.73;;;31.93;;
6832;SDS011;3454;42.654;23.378;2023-12-20T14:38:45;70.23;;;33.23;;
6832;SDS011;3454;42.654;23.378;2023-12-20T14:41:12;68.10;;;31.17;;
6832;SDS011;3454;42.654;23.378;2023-12-20T14:43:37;65.67;;;30.57;;